Rye, New Hampshire
Current Conditions -  °F | °C
As of 11:58 AM on Thursday 30 Oct 2014 (Local Time) from KPSM Reporting Station
Broken Clouds Broken Clouds  
Wind Chill: 54°   Ceiling: 8000
Heat Index: 54°   Visibility: 10mi
Dew Point: 41°   Wind: 9mph
Humidity: 62%   Direction: 260°W
Pressure: 29.9"   Gusts: NA
Location:  43.01°N, 70.77°W
Report Text: KPSM 301558Z 26008KT 10SM FEW035 BKN080 12/05 A2990 RMK AO2A SLP129 T01220051
Loading
Personal Weather Stations






























Interactive Weather Map
Tropical Storm Tracking
New forecast layout! Learn more

10-Day Weather Forecast

Advertisements
Track Severe Weather on mobile